createdAt,value
2023-05-21T00:02:24.932Z,93.10
2023-05-21T00:07:27.189Z,93.10
2023-05-21T00:12:29.110Z,93.10
2023-05-21T00:17:31.062Z,93.10
2023-05-21T00:22:33.570Z,93.10
2023-05-21T00:27:35.617Z,93.10
2023-05-21T00:32:37.959Z,93.10
2023-05-21T00:37:40.809Z,93.10
2023-05-21T00:42:42.741Z,93.20
2023-05-21T00:47:45.991Z,93.10
2023-05-21T00:52:49.039Z,93.10
2023-05-21T00:57:51.047Z,93.10
2023-05-21T01:02:53.387Z,93.10
2023-05-21T01:07:58.145Z,93.10
2023-05-21T01:13:00.508Z,93.10
2023-05-21T01:18:02.959Z,93.10
2023-05-21T01:23:05.979Z,93.50
2023-05-21T01:28:08.157Z,93.10
2023-05-21T01:33:33.666Z,93.10
2023-05-21T01:38:51.717Z,93.10
2023-05-21T01:43:55.875Z,93.20
2023-05-21T01:48:58.038Z,93.10
2023-05-21T01:54:00.002Z,93.10
2023-05-21T01:59:02.099Z,93.00
2023-05-21T02:04:04.175Z,93.10
2023-05-21T02:09:08.137Z,93.10
2023-05-21T02:14:10.407Z,93.10
2023-05-21T02:19:12.455Z,93.10
2023-05-21T02:24:14.669Z,93.10
2023-05-21T02:29:16.874Z,93.10
2023-05-21T02:34:20.633Z,93.10
2023-05-21T02:39:22.707Z,93.20
2023-05-21T02:44:24.837Z,93.20
2023-05-21T02:49:27.051Z,93.20
2023-05-21T02:54:28.987Z,93.20
2023-05-21T02:59:31.511Z,93.20
2023-05-21T03:04:38.827Z,93.20
2023-05-21T03:09:44.309Z,93.20
2023-05-21T03:14:46.557Z,93.30
2023-05-21T03:19:49.436Z,93.20
2023-05-21T03:24:51.678Z,93.20
2023-05-21T03:29:55.955Z,93.20
2023-05-21T03:34:59.190Z,93.20
2023-05-21T03:40:01.363Z,93.20
2023-05-21T03:45:06.950Z,93.20
2023-05-21T03:50:27.732Z,93.20
2023-05-21T03:55:30.056Z,93.20
2023-05-21T04:00:32.806Z,93.20
2023-05-21T04:05:35.067Z,93.30
2023-05-21T04:10:37.377Z,93.30
2023-05-21T04:15:39.517Z,93.40
2023-05-21T04:20:41.647Z,93.40
2023-05-21T04:25:43.713Z,93.40
2023-05-21T04:30:47.690Z,93.40
2023-05-21T04:35:51.722Z,93.40
2023-05-21T04:40:53.793Z,93.80
2023-05-21T04:45:56.316Z,93.50
2023-05-21T04:50:59.917Z,93.50
2023-05-21T04:56:03.968Z,93.60
2023-05-21T05:01:06.046Z,93.60
2023-05-21T05:06:08.740Z,93.60
2023-05-21T05:11:11.122Z,93.60
2023-05-21T05:16:14.558Z,93.70
2023-05-21T05:21:16.816Z,93.70
2023-05-21T05:26:19.823Z,94.10
2023-05-21T05:31:21.979Z,93.80
2023-05-21T05:36:24.270Z,93.90
2023-05-21T05:41:27.497Z,94.00
2023-05-21T05:46:30.963Z,94.10
2023-05-21T05:51:33.090Z,94.20
2023-05-21T05:56:35.206Z,94.20
2023-05-21T06:01:40.082Z,94.30
2023-05-21T06:06:42.282Z,94.40
2023-05-21T06:11:44.740Z,94.50
2023-05-21T06:16:46.760Z,94.60
2023-05-21T06:21:49.124Z,94.70
2023-05-21T06:26:52.344Z,94.70
2023-05-21T06:31:58.154Z,94.70
2023-05-21T06:37:00.185Z,94.80
2023-05-21T06:42:02.325Z,94.90
2023-05-21T06:47:33.548Z,94.90
2023-05-21T06:52:35.556Z,95.00
2023-05-21T06:57:39.016Z,95.00
2023-05-21T07:02:41.022Z,95.40
2023-05-21T07:07:43.870Z,95.20
2023-05-21T07:12:45.831Z,95.20
2023-05-21T07:17:48.503Z,95.20
2023-05-21T07:22:51.037Z,95.30
2023-05-21T07:27:53.070Z,95.40
2023-05-21T07:32:55.617Z,95.40
2023-05-21T07:37:58.578Z,95.40
2023-05-21T07:43:00.585Z,95.60
2023-05-21T07:48:05.199Z,95.70
2023-05-21T07:53:09.289Z,95.70
2023-05-21T07:58:11.364Z,95.70
2023-05-21T08:03:17.571Z,95.90
2023-05-21T08:08:22.127Z,95.90
2023-05-21T08:13:25.953Z,96.00
2023-05-21T08:18:28.484Z,96.30
2023-05-21T08:23:31.874Z,96.20
2023-05-21T08:28:38.331Z,96.30
2023-05-21T08:33:40.400Z,96.10
2023-05-21T08:38:42.250Z,96.10
2023-05-21T08:43:56.760Z,96.10
2023-05-21T08:49:01.586Z,96.10
2023-05-21T08:54:05.496Z,96.10
2023-05-21T08:59:15.301Z,96.20
2023-05-21T09:04:21.363Z,96.30
2023-05-21T09:09:50.337Z,96.40
2023-05-21T09:14:53.067Z,96.50
2023-05-21T09:20:15.926Z,96.70
2023-05-21T09:25:28.264Z,96.80
2023-05-21T09:30:35.780Z,97.00
2023-05-21T09:35:45.806Z,96.90
2023-05-21T09:40:49.759Z,96.90
2023-05-21T09:45:53.095Z,97.00
2023-05-21T09:51:16.793Z,97.00
2023-05-21T09:56:24.636Z,97.00
2023-05-21T10:01:27.344Z,96.80
2023-05-21T10:06:31.350Z,96.90
2023-05-21T10:11:34.724Z,97.00
2023-05-21T10:16:37.497Z,96.90
2023-05-21T10:21:41.045Z,96.50
2023-05-21T10:26:43.396Z,96.40
2023-05-21T10:31:49.858Z,96.40
2023-05-21T10:36:54.584Z,96.40
2023-05-21T10:42:26.007Z,96.50
2023-05-21T10:47:54.138Z,96.50
2023-05-21T10:53:30.047Z,96.20
2023-05-21T10:59:00.852Z,96.10
2023-05-21T11:04:03.936Z,96.20
2023-05-21T11:09:13.797Z,96.30
2023-05-21T11:14:43.548Z,96.00
2023-05-21T11:19:51.370Z,96.00
2023-05-21T11:25:01.964Z,96.10
2023-05-21T11:30:08.163Z,95.90
2023-05-21T11:35:14.224Z,95.80
2023-05-21T11:40:22.829Z,95.60
2023-05-21T11:45:30.824Z,95.60
2023-05-21T11:50:34.096Z,95.70
2023-05-21T11:55:43.636Z,95.80
2023-05-21T12:00:45.674Z,95.70
2023-05-21T12:05:48.856Z,95.60
2023-05-21T12:10:58.880Z,95.60
2023-05-21T12:16:03.447Z,95.50
2023-05-21T12:21:07.145Z,95.30
2023-05-21T12:26:09.284Z,95.10
2023-05-21T12:31:16.138Z,95.10
2023-05-21T12:36:27.917Z,95.10
2023-05-21T12:41:30.080Z,95.10
2023-05-21T12:46:32.203Z,95.00
2023-05-21T12:51:40.724Z,95.00
2023-05-21T12:56:46.515Z,94.90
2023-05-21T13:01:48.874Z,94.90
2023-05-21T13:06:50.897Z,94.90
2023-05-21T13:11:52.859Z,94.70
2023-05-21T13:16:54.811Z,94.50
2023-05-21T13:21:56.734Z,94.40
2023-05-21T13:26:58.852Z,94.40
2023-05-21T13:32:00.940Z,94.40
2023-05-21T13:37:02.917Z,94.50
2023-05-21T13:42:05.894Z,94.50
2023-05-21T13:47:10.285Z,94.50
2023-05-21T13:52:12.787Z,94.50
2023-05-21T13:57:15.261Z,94.50
2023-05-21T14:02:17.346Z,94.50
2023-05-21T14:07:19.445Z,94.60
2023-05-21T14:12:21.839Z,94.60
2023-05-21T14:17:23.869Z,94.70
2023-05-21T14:22:25.812Z,94.70
2023-05-21T14:27:27.742Z,94.70
2023-05-21T14:32:29.827Z,94.80
2023-05-21T14:37:31.986Z,94.70
2023-05-21T14:42:35.367Z,94.60
2023-05-21T14:47:37.274Z,94.60
2023-05-21T14:52:42.635Z,94.60
2023-05-21T14:57:45.054Z,94.70
2023-05-21T15:02:47.094Z,94.50
2023-05-21T15:07:49.254Z,94.60
2023-05-21T15:12:51.470Z,94.60
2023-05-21T15:17:53.643Z,94.40
2023-05-21T15:23:05.077Z,94.40
2023-05-21T15:28:14.795Z,94.40
2023-05-21T15:33:16.793Z,94.30
2023-05-21T15:38:18.882Z,94.20
2023-05-21T15:43:20.851Z,94.10
2023-05-21T15:48:23.094Z,94.00
2023-05-21T15:53:25.271Z,93.80
2023-05-21T15:58:27.259Z,93.70
2023-05-21T16:03:29.311Z,93.60
2023-05-21T16:08:31.516Z,93.60
2023-05-21T16:13:33.481Z,93.50
2023-05-21T16:18:35.517Z,93.40
2023-05-21T16:23:38.734Z,93.40
2023-05-21T16:28:40.680Z,93.30
2023-05-21T16:33:45.835Z,93.10
2023-05-21T16:38:50.850Z,93.10
2023-05-21T16:43:54.371Z,93.10
2023-05-21T16:48:56.419Z,92.90
2023-05-21T16:53:58.424Z,92.90
2023-05-21T16:59:00.716Z,92.80
2023-05-21T17:04:02.805Z,92.70
2023-05-21T17:09:05.103Z,92.70
2023-05-21T17:14:07.234Z,92.60
2023-05-21T17:19:09.842Z,92.50
2023-05-21T17:24:12.365Z,92.40
2023-05-21T17:29:14.444Z,92.30
2023-05-21T17:34:16.737Z,92.30
2023-05-21T17:39:20.475Z,92.20
2023-05-21T17:44:22.532Z,92.20
2023-05-21T17:49:24.573Z,92.20
2023-05-21T17:54:26.539Z,92.10
2023-05-21T17:59:28.550Z,92.20
2023-05-21T18:04:30.898Z,92.10
2023-05-21T18:09:32.898Z,92.00
2023-05-21T18:14:34.923Z,92.00
2023-05-21T18:19:36.921Z,91.90
2023-05-21T18:24:39.723Z,91.90
2023-05-21T18:29:41.719Z,91.80
2023-05-21T18:34:44.065Z,91.80
2023-05-21T18:39:46.095Z,91.80
2023-05-21T18:44:51.259Z,91.80
2023-05-21T18:49:53.334Z,91.80
2023-05-21T18:54:58.326Z,91.70
2023-05-21T19:00:01.113Z,91.70
2023-05-21T19:05:03.313Z,91.70
2023-05-21T19:10:05.814Z,91.50
2023-05-21T19:15:08.455Z,91.60
2023-05-21T19:20:10.720Z,91.50
2023-05-21T19:25:12.707Z,91.50
2023-05-21T19:30:14.703Z,91.60
2023-05-21T19:35:16.735Z,91.60
2023-05-21T19:40:19.244Z,91.50
2023-05-21T19:45:21.634Z,91.50
2023-05-21T19:50:23.778Z,91.50
2023-05-21T19:55:25.727Z,91.40
2023-05-21T20:00:28.677Z,91.40
2023-05-21T20:05:30.570Z,91.30
2023-05-21T20:10:32.474Z,91.30
2023-05-21T20:15:34.679Z,91.30
2023-05-21T20:20:38.126Z,91.20
2023-05-21T20:25:40.274Z,91.20
2023-05-21T20:31:00.584Z,91.20
2023-05-21T20:36:03.432Z,91.10
2023-05-21T20:41:05.620Z,91.20
2023-05-21T20:46:08.053Z,91.10
2023-05-21T20:51:10.138Z,91.10
2023-05-21T20:56:26.615Z,91.00
2023-05-21T21:01:37.885Z,91.00
2023-05-21T21:06:40.456Z,91.00
2023-05-21T21:11:42.477Z,90.90
2023-05-21T21:16:44.428Z,90.80
2023-05-21T21:21:47.711Z,90.80
2023-05-21T21:26:49.733Z,90.70
2023-05-21T21:31:52.368Z,90.70
2023-05-21T21:36:54.544Z,90.70
2023-05-21T21:41:56.374Z,90.60
2023-05-21T21:46:58.267Z,90.60
2023-05-21T21:52:00.338Z,90.60
2023-05-21T21:57:02.879Z,90.60
2023-05-21T22:02:05.793Z,90.60
2023-05-21T22:07:10.736Z,90.50
2023-05-21T22:12:13.560Z,90.50
2023-05-21T22:17:17.932Z,90.70
2023-05-21T22:22:19.851Z,90.50
2023-05-21T22:27:21.751Z,90.50
2023-05-21T22:32:23.594Z,90.50
2023-05-21T22:37:27.356Z,90.50
2023-05-21T22:42:29.423Z,90.40
2023-05-21T22:47:32.246Z,90.40
2023-05-21T22:52:38.150Z,90.70
2023-05-21T22:57:40.154Z,90.40
2023-05-21T23:02:42.103Z,90.40
2023-05-21T23:07:44.035Z,90.40
2023-05-21T23:12:45.927Z,90.40
2023-05-21T23:17:47.958Z,90.40
2023-05-21T23:22:49.927Z,90.40
2023-05-21T23:27:51.837Z,90.40
2023-05-21T23:32:53.741Z,90.40
2023-05-21T23:37:58.895Z,90.40
2023-05-21T23:43:01.289Z,90.30
2023-05-21T23:48:03.738Z,90.30
2023-05-21T23:53:05.722Z,90.30
2023-05-21T23:58:07.583Z,90.30
